Weather at Hella Airport

Public forecast

Using degrees Celsius for public forecast. Weather courtesy of forecast.io.

Closest aviation weather report (METAR) to Hella Airport

Report is more than 6 hours old.

Closest report is Vestmannaeyjar Airport, 24.8 nm (46.0 km) S. Retrieved 2021/06/22 17:00 UTC (15 hours ago):

BIVM 221700Z 30016KT 9999 OVC010 09/06 Q1007

Closest aviation forecast (TAF) to Hella Airport

Closest forecast is Reykjavik Airport, 44.8 nm (83.0 km) WNW. Retrieved 2021/06/23 09:57 UTC (0 seconds ago):

TAF BIRK 230754Z 2309/2409 01013KT 9999 FEW030 TX12/2315Z TN06/2406Z BECMG 2402/2404 VRB02KT